createdAt,value
2018-01-11T00:00:38.064Z,97.50
2018-01-11T00:03:06.233Z,98.40
2018-01-11T00:05:34.375Z,97.70
2018-01-11T00:08:03.288Z,97.60
2018-01-11T00:10:32.229Z,97.40
2018-01-11T00:13:00.365Z,97.40
2018-01-11T00:15:29.277Z,97.50
2018-01-11T00:17:57.426Z,97.60
2018-01-11T00:20:25.572Z,97.60
2018-01-11T00:22:53.711Z,98.80
2018-01-11T00:25:22.630Z,97.20
2018-01-11T00:27:51.530Z,96.70
2018-01-11T00:30:20.441Z,97.10
2018-01-11T00:32:49.333Z,97.50
2018-01-11T00:35:18.253Z,97.60
2018-01-11T00:37:47.132Z,97.50
2018-01-11T00:40:15.308Z,97.50
2018-01-11T00:42:43.433Z,97.60
2018-01-11T00:45:11.552Z,97.90
2018-01-11T00:47:39.720Z,98.50
2018-01-11T00:50:07.857Z,98.20
2018-01-11T00:52:36.009Z,97.40
2018-01-11T00:55:04.149Z,96.70
2018-01-11T00:57:33.055Z,97.30
2018-01-11T01:00:01.986Z,98.40
2018-01-11T01:02:30.126Z,98.40
2018-01-11T01:04:58.279Z,98.40
2018-01-11T01:07:26.421Z,97.50
2018-01-11T01:09:55.332Z,96.10
2018-01-11T01:12:24.251Z,97.90
2018-01-11T01:14:52.409Z,97.90
2018-01-11T01:17:21.325Z,96.80
2018-01-11T01:19:49.461Z,96.90
2018-01-11T01:22:17.595Z,96.30
2018-01-11T01:24:45.733Z,97.70
2018-01-11T01:27:14.645Z,97.10
2018-01-11T01:29:42.785Z,97.10
2018-01-11T01:32:10.937Z,97.60
2018-01-11T01:34:39.064Z,98.30
2018-01-11T01:37:07.184Z,97.80
2018-01-11T01:39:35.327Z,97.50
2018-01-11T01:42:03.457Z,98.00
2018-01-11T01:44:31.604Z,97.80
2018-01-11T01:46:59.720Z,97.60
2018-01-11T01:49:27.873Z,96.90
2018-01-11T01:51:56.001Z,97.50
2018-01-11T01:54:24.140Z,97.70
2018-01-11T01:56:52.268Z,97.50
2018-01-11T01:59:20.414Z,97.00
2018-01-11T02:01:48.559Z,97.80
2018-01-11T02:04:16.695Z,98.80
2018-01-11T02:06:44.840Z,99.20
2018-01-11T02:09:13.736Z,98.20
2018-01-11T02:11:43.786Z,97.90
2018-01-11T02:14:11.913Z,97.90
2018-01-11T02:16:40.142Z,97.70
2018-01-11T02:19:08.270Z,98.60
2018-01-11T02:21:36.415Z,98.90
2018-01-11T02:24:05.304Z,97.70
2018-01-11T02:26:33.456Z,97.70
2018-01-11T02:29:02.360Z,97.30
2018-01-11T02:31:30.502Z,97.30
2018-01-11T02:33:59.399Z,98.90
2018-01-11T02:36:28.309Z,99.10
2018-01-11T02:38:57.260Z,98.30
2018-01-11T02:41:25.393Z,98.30
2018-01-11T02:43:54.291Z,96.60
2018-01-11T02:46:23.194Z,96.20
2018-01-11T02:48:51.353Z,96.20
2018-01-11T02:51:20.244Z,96.80
2018-01-11T02:53:48.382Z,96.80
2018-01-11T02:56:17.288Z,97.40
2018-01-11T02:58:45.424Z,97.30
2018-01-11T03:01:13.560Z,97.10
2018-01-11T03:03:41.702Z,96.90
2018-01-11T03:06:09.848Z,96.80
2018-01-11T03:08:37.991Z,98.40
2018-01-11T03:11:06.136Z,99.10
2018-01-11T03:13:34.284Z,99.10
2018-01-11T03:16:03.770Z,98.60
2018-01-11T03:18:31.922Z,98.50
2018-01-11T03:21:00.049Z,99.00
2018-01-11T03:23:28.217Z,98.40
2018-01-11T03:25:56.350Z,98.60
2018-01-11T03:28:25.259Z,98.20
2018-01-11T03:30:53.392Z,98.10
2018-01-11T03:33:21.532Z,97.60
2018-01-11T03:35:50.430Z,98.50
2018-01-11T03:38:19.341Z,98.30
2018-01-11T03:40:47.484Z,98.40
2018-01-11T03:43:15.613Z,98.00
2018-01-11T03:45:43.766Z,97.50
2018-01-11T03:48:11.905Z,96.60
2018-01-11T03:50:40.033Z,97.70
2018-01-11T03:53:08.181Z,98.10
2018-01-11T03:55:36.305Z,97.70
2018-01-11T03:58:04.445Z,97.60
2018-01-11T04:00:32.588Z,97.30
2018-01-11T04:03:00.711Z,97.50
2018-01-11T04:05:28.836Z,97.90
2018-01-11T04:07:56.986Z,97.60
2018-01-11T04:10:25.888Z,97.40
2018-01-11T04:12:54.047Z,97.40
2018-01-11T04:15:22.937Z,97.10
2018-01-11T04:17:51.838Z,97.20
2018-01-11T04:20:19.984Z,97.20
2018-01-11T04:22:48.111Z,97.00
2018-01-11T04:25:17.007Z,96.90
2018-01-11T04:27:45.152Z,96.90
2018-01-11T04:30:13.308Z,97.40
2018-01-11T04:32:42.193Z,98.20
2018-01-11T04:35:11.102Z,98.00
2018-01-11T04:37:39.996Z,97.40
2018-01-11T04:40:08.136Z,97.40
2018-01-11T04:42:37.151Z,97.30
2018-01-11T04:45:06.078Z,97.20
2018-01-11T04:47:34.234Z,97.20
2018-01-11T04:50:02.356Z,98.00
2018-01-11T04:52:30.512Z,98.10
2018-01-11T04:54:58.628Z,98.40
2018-01-11T04:57:26.822Z,98.40
2018-01-11T04:59:55.100Z,98.10
2018-01-11T05:02:23.237Z,98.60
2018-01-11T05:04:51.373Z,98.30
2018-01-11T05:07:19.519Z,98.10
2018-01-11T05:09:47.644Z,98.50
2018-01-11T05:12:15.780Z,98.60
2018-01-11T05:14:43.952Z,98.10
2018-01-11T05:17:12.084Z,97.90
2018-01-11T05:19:40.228Z,97.90
2018-01-11T05:22:08.373Z,98.70
2018-01-11T05:24:36.497Z,99.30
2018-01-11T05:27:04.636Z,99.80
2018-01-11T05:29:32.788Z,99.20
2018-01-11T05:32:00.924Z,98.70
2018-01-11T05:34:29.067Z,98.10
2018-01-11T05:36:57.184Z,97.60
2018-01-11T05:39:26.851Z,96.80
2018-01-11T05:41:54.967Z,96.80
2018-01-11T05:44:23.116Z,97.70
2018-01-11T05:46:51.252Z,98.80
2018-01-11T05:49:19.410Z,98.30
2018-01-11T05:51:47.559Z,97.90
2018-01-11T05:54:16.462Z,98.60
2018-01-11T05:56:44.584Z,98.60
2018-01-11T05:59:12.714Z,98.40
2018-01-11T06:01:40.865Z,98.00
2018-01-11T06:04:08.988Z,97.20
2018-01-11T06:06:37.137Z,98.00
2018-01-11T06:09:05.269Z,97.90
2018-01-11T06:11:34.176Z,98.00
2018-01-11T06:14:03.073Z,97.20
2018-01-11T06:16:31.989Z,97.80
2018-01-11T06:19:00.882Z,97.70
2018-01-11T06:21:29.800Z,97.50
2018-01-11T06:23:58.699Z,97.90
2018-01-11T06:26:27.658Z,98.00
2018-01-11T06:28:55.797Z,98.00
2018-01-11T06:31:24.699Z,98.70
2018-01-11T06:33:53.609Z,98.50
2018-01-11T06:36:21.753Z,98.50
2018-01-11T06:38:49.921Z,98.20
2018-01-11T06:41:18.073Z,97.90
2018-01-11T06:43:46.199Z,97.90
2018-01-11T06:46:14.353Z,97.80
2018-01-11T06:48:42.488Z,97.30
2018-01-11T06:51:10.628Z,97.80
2018-01-11T06:53:38.821Z,98.00
2018-01-11T06:56:07.690Z,98.20
2018-01-11T06:58:36.597Z,97.20
2018-01-11T07:01:05.508Z,96.90
2018-01-11T07:03:33.644Z,96.70
2018-01-11T07:06:01.766Z,96.20
2018-01-11T07:08:30.694Z,97.20
2018-01-11T07:10:58.815Z,97.20
2018-01-11T07:13:26.957Z,96.90
2018-01-11T07:15:55.080Z,96.50
2018-01-11T07:18:23.232Z,96.00
2018-01-11T07:20:52.156Z,96.00
2018-01-11T07:23:20.314Z,96.60
2018-01-11T07:25:49.216Z,99.00
2018-01-11T07:28:18.108Z,98.80
2018-01-11T07:30:47.008Z,98.00
2018-01-11T07:33:15.928Z,97.70
2018-01-11T07:35:44.059Z,97.70
2018-01-11T07:38:12.222Z,98.80
2018-01-11T07:40:40.337Z,99.20
2018-01-11T07:43:08.486Z,99.60
2018-01-11T07:45:36.618Z,99.90
2018-01-11T07:48:04.754Z,99.90
2018-01-11T07:50:32.917Z,99.40
2018-01-11T07:53:01.830Z,98.70
2018-01-11T07:55:30.767Z,98.10
2018-01-11T07:57:58.909Z,98.10
2018-01-11T08:00:27.824Z,98.10
2018-01-11T08:02:56.749Z,97.50
2018-01-11T08:05:24.888Z,97.50
2018-01-11T08:07:53.012Z,96.60
2018-01-11T08:10:21.157Z,96.60
2018-01-11T08:12:49.329Z,96.30
2018-01-11T08:15:17.457Z,95.90
2018-01-11T08:17:45.592Z,95.50
2018-01-11T08:20:13.762Z,95.30
2018-01-11T08:22:41.914Z,95.70
2018-01-11T08:25:10.836Z,95.90
2018-01-11T08:27:38.975Z,95.90
2018-01-11T08:30:07.107Z,96.50
2018-01-11T08:32:35.301Z,96.50
2018-01-11T08:35:03.440Z,96.00
2018-01-11T08:37:32.394Z,96.20
2018-01-11T08:40:00.528Z,96.20
2018-01-11T08:42:28.672Z,96.10
2018-01-11T08:44:56.808Z,96.10
2018-01-11T08:47:25.709Z,94.90
2018-01-11T08:49:53.845Z,94.90
2018-01-11T08:52:21.977Z,94.90
2018-01-11T08:54:50.900Z,94.40
2018-01-11T08:57:19.802Z,93.70
2018-01-11T08:59:48.707Z,93.70
2018-01-11T09:02:17.617Z,94.70
2018-01-11T09:04:45.776Z,94.70
2018-01-11T09:07:13.916Z,94.70
2018-01-11T09:09:42.063Z,94.00
2018-01-11T09:12:10.970Z,93.40
2018-01-11T09:14:39.881Z,93.20
2018-01-11T09:17:08.784Z,93.20
2018-01-11T09:19:37.680Z,93.00
2018-01-11T09:22:05.832Z,92.90
2018-01-11T09:24:33.978Z,93.20
2018-01-11T09:27:02.126Z,93.00
2018-01-11T09:29:30.292Z,93.60
2018-01-11T09:31:58.410Z,93.20
2018-01-11T09:34:27.308Z,93.30
2018-01-11T09:36:55.459Z,93.30
2018-01-11T09:39:23.599Z,92.70
2018-01-11T09:41:51.827Z,92.70
2018-01-11T09:44:19.941Z,92.70
2018-01-11T09:46:48.905Z,92.70
2018-01-11T09:49:17.052Z,92.70
2018-01-11T09:51:45.944Z,92.30
2018-01-11T09:54:14.844Z,92.10
2018-01-11T09:56:43.746Z,93.00
2018-01-11T09:59:12.660Z,93.30
2018-01-11T10:01:41.548Z,92.70
2018-01-11T10:04:09.703Z,92.70
2018-01-11T10:06:37.843Z,92.40
2018-01-11T10:09:06.751Z,92.30
2018-01-11T10:11:34.908Z,92.30
2018-01-11T10:14:03.096Z,92.10
2018-01-11T10:16:31.241Z,92.20
2018-01-11T10:18:59.389Z,92.10
2018-01-11T10:21:28.341Z,92.50
2018-01-11T10:23:57.269Z,92.40
2018-01-11T10:26:25.398Z,92.40
2018-01-11T10:28:53.585Z,92.20
2018-01-11T10:31:22.465Z,93.00
2018-01-11T10:33:51.372Z,92.70
2018-01-11T10:36:20.306Z,93.00
2018-01-11T10:38:48.453Z,92.90
2018-01-11T10:41:17.366Z,92.50
2018-01-11T10:43:45.521Z,92.50
2018-01-11T10:46:13.673Z,92.40
2018-01-11T10:48:41.836Z,91.90
2018-01-11T10:51:10.017Z,92.30
2018-01-11T10:53:38.934Z,92.60
2018-01-11T10:56:07.829Z,92.20
2018-01-11T10:58:35.972Z,92.20
2018-01-11T11:01:09.737Z,93.20
2018-01-11T11:03:37.873Z,93.10
2018-01-11T11:06:06.048Z,93.20
2018-01-11T11:08:34.168Z,92.70
2018-01-11T11:11:03.109Z,92.30
2018-01-11T11:13:31.266Z,92.30
2018-01-11T11:15:59.413Z,92.50
2018-01-11T11:18:27.553Z,92.10
2018-01-11T11:20:55.714Z,91.60
2018-01-11T11:23:23.872Z,92.00
2018-01-11T11:25:52.047Z,92.20
2018-01-11T11:28:20.222Z,92.10
2018-01-11T11:30:48.356Z,91.90
2018-01-11T11:33:16.512Z,91.40
2018-01-11T11:35:44.652Z,91.80
2018-01-11T11:38:13.570Z,92.10
2018-01-11T11:40:41.693Z,92.00
2018-01-11T11:43:09.850Z,92.10
2018-01-11T11:45:37.986Z,93.10
2018-01-11T11:48:06.143Z,92.70
2018-01-11T11:50:36.060Z,92.50
2018-01-11T11:53:04.210Z,92.30
2018-01-11T11:55:33.121Z,92.70
2018-01-11T11:58:02.692Z,92.80
2018-01-11T12:00:30.833Z,92.80
2018-01-11T12:02:58.965Z,92.70
2018-01-11T12:05:27.177Z,92.50
2018-01-11T12:07:55.307Z,92.90
2018-01-11T12:10:24.393Z,92.70
2018-01-11T12:12:52.545Z,93.10
2018-01-11T12:15:20.703Z,93.10
2018-01-11T12:17:48.829Z,92.70
2018-01-11T12:20:17.748Z,92.50
2018-01-11T12:22:46.647Z,91.70
2018-01-11T12:25:15.584Z,91.50
2018-01-11T12:27:43.744Z,91.50
2018-01-11T12:30:13.405Z,91.20
2018-01-11T12:32:42.375Z,91.20
2018-01-11T12:35:10.508Z,91.50
2018-01-11T12:37:38.668Z,91.90
2018-01-11T12:40:06.808Z,92.30
2018-01-11T12:42:34.966Z,92.70
2018-01-11T12:45:04.494Z,92.40
2018-01-11T12:47:32.638Z,92.60
2018-01-11T12:50:00.769Z,92.70
2018-01-11T12:52:28.940Z,92.60
2018-01-11T12:54:57.084Z,93.40
2018-01-11T12:57:25.225Z,93.20
2018-01-11T12:59:53.360Z,93.20
2018-01-11T13:02:21.505Z,93.20
2018-01-11T13:04:49.661Z,93.70
2018-01-11T13:07:17.799Z,93.90
2018-01-11T13:09:46.717Z,93.70
2018-01-11T13:12:15.647Z,93.70
2018-01-11T13:14:43.796Z,93.30
2018-01-11T13:17:12.734Z,93.50
2018-01-11T13:19:40.886Z,93.50
2018-01-11T13:22:09.781Z,93.10
2018-01-11T13:24:37.975Z,93.00
2018-01-11T13:27:06.865Z,92.90
2018-01-11T13:29:35.002Z,92.90
2018-01-11T13:32:03.154Z,92.90
2018-01-11T13:34:32.062Z,92.30
2018-01-11T13:37:01.055Z,92.50
2018-01-11T13:39:29.967Z,92.30
2018-01-11T13:41:58.895Z,92.30
2018-01-11T13:44:27.025Z,92.30
2018-01-11T13:46:55.198Z,92.40
2018-01-11T13:49:23.364Z,92.50
2018-01-11T13:51:51.518Z,92.30
2018-01-11T13:54:20.421Z,92.50
2018-01-11T13:56:49.358Z,92.50
2018-01-11T13:59:17.552Z,92.50
2018-01-11T14:01:45.702Z,92.50
2018-01-11T14:04:14.661Z,92.40
2018-01-11T14:06:42.753Z,92.30
2018-01-11T14:09:12.692Z,92.50
2018-01-11T14:11:40.842Z,92.90
2018-01-11T14:14:09.737Z,92.70
2018-01-11T14:16:40.027Z,92.60
2018-01-11T14:19:08.181Z,92.50
2018-01-11T14:21:36.312Z,92.50
2018-01-11T14:24:05.234Z,92.70
2018-01-11T14:26:33.356Z,92.60
2018-01-11T14:29:01.536Z,92.90
2018-01-11T14:31:29.673Z,93.20
2018-01-11T14:33:59.293Z,94.00
2018-01-11T14:36:28.189Z,93.60
2018-01-11T14:38:57.114Z,93.80
2018-01-11T14:41:26.040Z,93.80
2018-01-11T14:43:54.201Z,93.80
2018-01-11T14:46:23.101Z,93.90
2018-01-11T14:48:52.025Z,93.90
2018-01-11T14:51:20.958Z,94.00
2018-01-11T14:53:49.089Z,94.00
2018-01-11T14:56:18.005Z,94.20
2018-01-11T14:58:46.169Z,94.10
2018-01-11T15:01:15.092Z,94.40
2018-01-11T15:03:44.017Z,94.50
2018-01-11T15:06:12.172Z,94.40
2018-01-11T15:08:40.296Z,94.90
2018-01-11T15:11:08.466Z,94.90
2018-01-11T15:13:37.421Z,94.80
2018-01-11T15:16:05.559Z,94.80
2018-01-11T15:18:33.725Z,95.20
2018-01-11T15:21:02.632Z,95.70
2018-01-11T15:23:31.540Z,95.40
2018-01-11T15:26:00.472Z,95.40
2018-01-11T15:28:28.604Z,95.40
2018-01-11T15:30:56.784Z,95.40
2018-01-11T15:33:24.919Z,95.80
2018-01-11T15:35:53.573Z,95.60
2018-01-11T15:38:21.778Z,95.70
2018-01-11T15:40:49.920Z,95.60
2018-01-11T15:43:18.843Z,95.70
2018-01-11T15:45:46.997Z,95.70
2018-01-11T15:48:15.163Z,95.90
2018-01-11T15:50:44.872Z,95.80
2018-01-11T15:53:13.045Z,95.80
2018-01-11T15:55:42.089Z,95.70
2018-01-11T15:58:10.232Z,95.70
2018-01-11T16:00:39.146Z,95.50
2018-01-11T16:03:08.048Z,95.60
2018-01-11T16:05:36.970Z,95.60
2018-01-11T16:08:05.100Z,95.50
2018-01-11T16:10:33.269Z,95.50
2018-01-11T16:13:01.405Z,95.50
2018-01-11T16:15:30.319Z,95.50
2018-01-11T16:17:58.470Z,95.50
2018-01-11T16:20:26.615Z,95.20
2018-01-11T16:22:54.786Z,95.70
2018-01-11T16:25:23.688Z,95.20
2018-01-11T16:27:51.843Z,95.20
2018-01-11T16:30:19.988Z,95.70
2018-01-11T16:32:48.146Z,95.50
2018-01-11T16:35:17.059Z,95.70
2018-01-11T16:37:46.035Z,96.20
2018-01-11T16:40:14.169Z,96.20
2018-01-11T16:42:42.313Z,96.10
2018-01-11T16:45:11.216Z,96.00
2018-01-11T16:47:40.135Z,96.20
2018-01-11T16:50:09.068Z,95.80
2018-01-11T16:52:37.206Z,95.80
2018-01-11T16:55:05.377Z,96.10
2018-01-11T16:57:33.541Z,96.30
2018-01-11T17:00:01.683Z,96.20
2018-01-11T17:02:30.612Z,95.80
2018-01-11T17:04:58.755Z,95.80
2018-01-11T17:07:27.690Z,95.60
2018-01-11T17:09:55.858Z,95.60
2018-01-11T17:12:24.753Z,95.20
2018-01-11T17:14:53.676Z,95.80
2018-01-11T17:17:21.816Z,95.70
2018-01-11T17:19:50.730Z,97.60
2018-01-11T17:22:18.865Z,97.60
2018-01-11T17:24:47.035Z,98.50
2018-01-11T17:27:15.190Z,99.10
2018-01-11T17:29:43.324Z,98.60
2018-01-11T17:32:11.490Z,98.20
2018-01-11T17:34:40.812Z,98.80
2018-01-11T17:37:09.734Z,99.70
2018-01-11T17:39:38.601Z,99.70
2018-01-11T17:42:07.544Z,98.60
2018-01-11T17:44:35.698Z,98.60
2018-01-11T17:47:04.639Z,99.20
2018-01-11T17:49:33.533Z,98.80
2018-01-11T17:52:01.701Z,98.80
2018-01-11T17:54:30.632Z,98.30
2018-01-11T17:56:59.552Z,98.10
2018-01-11T17:59:27.694Z,98.00
2018-01-11T18:01:55.845Z,98.60
2018-01-11T18:04:24.033Z,99.20
2018-01-11T18:06:52.177Z,99.50
2018-01-11T18:09:20.357Z,99.80
2018-01-11T18:11:48.505Z,99.80
2018-01-11T18:14:17.446Z,99.90
2018-01-11T18:16:45.596Z,99.90
2018-01-11T18:19:13.756Z,99.90
2018-01-11T18:21:41.908Z,99.90
2018-01-11T18:24:10.862Z,99.70
2018-01-11T18:26:40.722Z,99.90
2018-01-11T18:29:08.908Z,99.90
2018-01-11T18:31:37.833Z,99.10
2018-01-11T18:34:05.965Z,99.10
2018-01-11T18:36:34.125Z,98.80
2018-01-11T18:39:04.102Z,98.80
2018-01-11T18:41:33.043Z,99.10
2018-01-11T18:44:01.178Z,99.00
2018-01-11T18:46:30.109Z,98.80
2018-01-11T18:48:59.037Z,98.40
2018-01-11T18:51:27.166Z,98.40
2018-01-11T18:53:55.311Z,98.30
2018-01-11T18:56:24.407Z,98.00
2018-01-11T18:58:52.540Z,97.80
2018-01-11T19:01:20.692Z,97.60
2018-01-11T19:03:48.840Z,96.90
2018-01-11T19:06:17.011Z,96.40
2018-01-11T19:08:45.170Z,95.10
2018-01-11T19:11:13.309Z,94.50
2018-01-11T19:13:41.455Z,94.50
2018-01-11T19:16:09.594Z,94.10
2018-01-11T19:18:37.719Z,93.20
2018-01-11T19:21:05.869Z,92.90
2018-01-11T19:23:34.032Z,92.80
2018-01-11T19:26:02.220Z,92.00
2018-01-11T19:28:30.374Z,91.30
2018-01-11T19:30:58.532Z,91.40
2018-01-11T19:33:26.674Z,91.60
2018-01-11T19:35:55.594Z,91.50
2018-01-11T19:38:23.739Z,91.50
2018-01-11T19:40:51.911Z,91.50
2018-01-11T19:43:20.050Z,91.60
2018-01-11T19:45:48.236Z,92.00
2018-01-11T19:48:17.141Z,92.00
2018-01-11T19:50:45.330Z,92.00
2018-01-11T19:53:13.497Z,92.00
2018-01-11T19:55:42.436Z,91.60
2018-01-11T19:58:10.613Z,91.60
2018-01-11T20:00:38.762Z,91.80
2018-01-11T20:03:07.709Z,91.80
2018-01-11T20:05:36.368Z,91.80
2018-01-11T20:08:05.290Z,91.60
2018-01-11T20:10:33.465Z,91.50
2018-01-11T20:13:01.663Z,91.30
2018-01-11T20:15:30.591Z,91.70
2018-01-11T20:18:00.414Z,91.70
2018-01-11T20:20:28.582Z,91.80
2018-01-11T20:22:57.539Z,91.60
2018-01-11T20:25:26.501Z,91.60
2018-01-11T20:27:54.656Z,91.60
2018-01-11T20:30:23.600Z,91.40
2018-01-11T20:32:51.792Z,91.40
2018-01-11T20:35:19.940Z,91.20
2018-01-11T20:37:48.867Z,92.60
2018-01-11T20:40:17.581Z,92.60
2018-01-11T20:42:45.828Z,92.50
2018-01-11T20:45:15.877Z,92.60
2018-01-11T20:47:44.076Z,92.50
2018-01-11T20:50:12.252Z,92.30
2018-01-11T20:52:41.136Z,92.00
2018-01-11T20:55:10.088Z,92.10
2018-01-11T20:57:38.234Z,92.10
2018-01-11T21:02:43.031Z,91.90
2018-01-11T21:05:11.185Z,91.90
2018-01-11T21:07:40.092Z,91.80
2018-01-11T21:10:09.030Z,91.50
2018-01-11T21:12:38.141Z,91.50
2018-01-11T21:15:07.092Z,91.40
2018-01-11T21:17:35.245Z,91.40
2018-01-11T21:20:03.430Z,91.50
2018-01-11T21:22:32.320Z,91.40
2018-01-11T21:25:00.484Z,91.40
2018-01-11T21:27:28.640Z,92.00
2018-01-11T21:29:56.824Z,92.50
2018-01-11T21:32:24.937Z,92.50
2018-01-11T21:34:53.856Z,92.20
2018-01-11T21:37:22.016Z,92.10
2018-01-11T21:39:50.928Z,91.70
2018-01-11T21:42:19.860Z,91.90
2018-01-11T21:44:48.014Z,91.90
2018-01-11T21:47:16.938Z,91.70
2018-01-11T21:49:45.072Z,91.70
2018-01-11T21:52:13.976Z,91.60
2018-01-11T21:54:42.118Z,91.60
2018-01-11T21:57:10.268Z,91.60
2018-01-11T21:59:38.456Z,91.30
2018-01-11T22:02:07.368Z,91.30
2018-01-11T22:04:35.486Z,91.30
2018-01-11T22:07:03.670Z,91.40
2018-01-11T22:09:31.821Z,91.30
2018-01-11T22:12:00.724Z,90.90
2018-01-11T22:14:28.887Z,90.90
2018-01-11T22:16:57.020Z,90.80
2018-01-11T22:19:25.193Z,91.10
2018-01-11T22:21:53.322Z,91.30
2018-01-11T22:24:21.468Z,91.10
2018-01-11T22:26:50.362Z,91.10
2018-01-11T22:29:19.291Z,91.10
2018-01-11T22:31:48.174Z,91.10
2018-01-11T22:34:16.314Z,91.10
2018-01-11T22:36:45.149Z,91.00
2018-01-11T22:39:13.284Z,90.90
2018-01-11T22:41:41.458Z,90.80
2018-01-11T22:44:09.607Z,90.60
2018-01-11T22:46:37.753Z,90.80
2018-01-11T22:49:05.937Z,90.80
2018-01-11T22:51:34.093Z,90.60
2018-01-11T22:54:02.225Z,90.50
2018-01-11T22:56:30.369Z,90.80
2018-01-11T22:58:58.524Z,90.90
2018-01-11T23:01:26.674Z,91.20
2018-01-11T23:03:54.828Z,90.80
2018-01-11T23:06:23.744Z,91.20
2018-01-11T23:08:52.635Z,90.40
2018-01-11T23:11:26.463Z,90.40
2018-01-11T23:13:55.364Z,91.40
2018-01-11T23:16:23.536Z,91.40
2018-01-11T23:18:52.440Z,91.30
2018-01-11T23:21:20.594Z,91.30
2018-01-11T23:23:48.755Z,91.60
2018-01-11T23:26:16.881Z,91.50
2018-01-11T23:28:45.797Z,92.20
2018-01-11T23:31:14.693Z,91.70
2018-01-11T23:33:43.598Z,92.10
2018-01-11T23:36:12.487Z,91.70
2018-01-11T23:38:40.632Z,91.70
2018-01-11T23:41:08.776Z,92.00
2018-01-11T23:43:38.486Z,91.70
2018-01-11T23:46:06.605Z,91.70
2018-01-11T23:48:34.740Z,91.70
2018-01-11T23:51:02.905Z,91.70
2018-01-11T23:53:31.057Z,92.20
2018-01-11T23:55:59.209Z,91.70
2018-01-11T23:58:27.344Z,91.80
